»·PEaware :: SNW963 KSAN-KLAS

SNW963 :: KSAN-KLAS

FLIGHT INFORMATION

Flight Status: Arrived
Operator: Unknown
More flights by this operator :: More flights under this callsign
Pilot: Andrew D. (25626)
Aircraft: BOEING 737-800
(B738)
More flights by this aircraft type
Origin: KSAN San Diego Intl-Lindbergh
United States
Destination: KLAS McCarran Intl
United States
More flights between these airports :: More routes between these airports
Route: +PADRZ2 CHKNN SEBBY YELAH MISEN KEPEC6
File this flight plan on PilotEdge
Remarks: RMK / CALLSIGN "SUNWEST"
Altitude:
(Current/Filed)
36,000ft
Speed:
(Current/Filed)
462kts
Departed: 31-Oct-19 09:27 AM
Arrived: 31-Oct-19 10:22 AM
Distance/Time
Traveled:
225nm/0:54
Distance/Time
To Go:
Arrived

Flight Plot

Page will automatically refresh every two minutes.

Flight plan parsing failed; only flown route is shown


Map Options




Map Legend


Flown Route
Filed Route
Departure Airport
Arrival Airport
Navaid (VOR, NDB)
Fix

Horizontal Profiles

Position Reports

Time Latitude Longitude Heading Altitude Ground
Speed
31-Oct-19 08:51 32.732344 -117.202805 201 23ft 0kts
31-Oct-19 08:52 32.732344 -117.202805 201 23ft 0kts
31-Oct-19 08:53 32.732344 -117.202805 201 23ft 0kts
31-Oct-19 08:54 32.732344 -117.202805 201 23ft 0kts
31-Oct-19 08:55 32.732344 -117.202805 201 23ft 0kts
31-Oct-19 08:56 32.732344 -117.202805 201 23ft 0kts
31-Oct-19 08:57 32.732344 -117.202805 201 23ft 0kts
31-Oct-19 08:58 32.732344 -117.202805 201 23ft 0kts
31-Oct-19 08:59 32.732344 -117.202805 201 23ft 0kts
31-Oct-19 09:00 32.732344 -117.202805 201 23ft 0kts
31-Oct-19 09:01 32.732344 -117.202805 201 23ft 0kts
31-Oct-19 09:02 32.732344 -117.202805 201 23ft 0kts
31-Oct-19 09:03 32.732344 -117.202805 201 23ft 0kts
31-Oct-19 09:04 32.732344 -117.202805 201 23ft 0kts
31-Oct-19 09:05 32.732344 -117.202805 201 23ft 0kts
31-Oct-19 09:06 32.732344 -117.202805 201 23ft 0kts
31-Oct-19 09:07 32.732344 -117.202805 201 23ft 0kts
31-Oct-19 09:08 32.732344 -117.202805 201 23ft 0kts
31-Oct-19 09:09 32.732344 -117.202805 201 23ft 0kts
31-Oct-19 09:10 32.732344 -117.202805 201 23ft 0kts
31-Oct-19 09:11 32.732344 -117.202805 201 23ft 0kts
31-Oct-19 09:12 32.732344 -117.202805 201 23ft 0kts
31-Oct-19 09:13 32.732359 -117.202798 201 23ft 1kts
31-Oct-19 09:14 32.732866 -117.202449 253 23ft 2kts
31-Oct-19 09:15 32.732857 -117.202259 303 23ft 0kts
31-Oct-19 09:16 32.732857 -117.202259 303 23ft 0kts
31-Oct-19 09:17 32.733214 -117.202612 334 23ft 10kts
31-Oct-19 09:18 32.734890 -117.202469 16 23ft 0kts
31-Oct-19 09:19 32.734891 -117.202468 16 23ft 0kts
31-Oct-19 09:20 32.734892 -117.202468 16 23ft 0kts
31-Oct-19 09:22 32.734893 -117.202467 16 23ft 0kts
31-Oct-19 09:23 32.734622 -117.198310 106 23ft 24kts
31-Oct-19 09:24 32.732902 -117.191235 106 23ft 20kts
31-Oct-19 09:25 32.731406 -117.185052 105 23ft 18kts
31-Oct-19 09:26 32.730031 -117.179384 105 23ft 18kts
31-Oct-19 09:27 32.730714 -117.178011 284 23ft 45kts
31-Oct-19 09:28 32.741941 -117.218976 297 1293ft 161kts
31-Oct-19 09:29 32.771126 -117.269734 304 3190ft 224kts
31-Oct-19 09:30 32.812193 -117.338486 309 5671ft 272kts
31-Oct-19 09:31 32.860360 -117.412529 308 8678ft 292kts
31-Oct-19 09:32 32.911112 -117.491321 307 11422ft 317kts
31-Oct-19 09:33 32.970250 -117.583378 306 12662ft 382kts
31-Oct-19 09:34 33.036706 -117.687243 307 15027ft 401kts
31-Oct-19 09:35 33.115914 -117.783044 320 17500ft 413kts
31-Oct-19 09:36 33.202854 -117.870924 320 19698ft 424kts
31-Oct-19 09:37 33.295331 -117.961032 320 21774ft 434kts
31-Oct-19 09:38 33.391427 -118.051570 331 23539ft 446kts
31-Oct-19 09:39 33.511546 -118.046648 29 25124ft 459kts
31-Oct-19 09:39 33.595351 -117.965244 39 26266ft 469kts
31-Oct-19 09:41 33.712806 -117.845982 39 27735ft 479kts
31-Oct-19 09:42 33.813470 -117.741188 44 29261ft 478kts
31-Oct-19 09:42 33.893528 -117.649384 39 30576ft 475kts
31-Oct-19 09:43 33.995109 -117.548193 39 31950ft 475kts
31-Oct-19 09:45 34.112777 -117.428814 39 33598ft 471kts
31-Oct-19 09:45 34.196098 -117.344146 39 34611ft 471kts
31-Oct-19 09:46 34.296446 -117.241560 39 35708ft 471kts
31-Oct-19 09:47 34.396705 -117.138577 39 36363ft 476kts
31-Oct-19 09:48 34.496967 -117.035216 39 36385ft 473kts
31-Oct-19 09:49 34.597478 -116.931240 39 36399ft 473kts
31-Oct-19 09:50 34.697572 -116.827350 39 36393ft 474kts
31-Oct-19 09:51 34.797598 -116.723185 39 33730ft 474kts
31-Oct-19 09:52 34.898127 -116.618361 39 30532ft 478kts
31-Oct-19 09:53 34.999272 -116.512258 39 27154ft 480kts
31-Oct-19 09:54 35.098596 -116.407591 40 24747ft 457kts
31-Oct-19 09:55 35.187428 -116.298270 45 22796ft 451kts
31-Oct-19 09:56 35.273274 -116.189405 44 21142ft 438kts
31-Oct-19 09:57 35.356939 -116.083786 44 19535ft 425kts
31-Oct-19 09:58 35.435756 -115.984553 44 18232ft 375kts
31-Oct-19 09:59 35.502162 -115.900840 44 17371ft 322kts
31-Oct-19 10:00 35.563810 -115.822534 45 15441ft 315kts
31-Oct-19 10:01 35.624165 -115.745559 45 13977ft 310kts
31-Oct-19 10:02 35.683435 -115.669902 46 13002ft 301kts
31-Oct-19 10:03 35.742283 -115.595062 41 12993ft 307kts
31-Oct-19 10:04 35.823340 -115.571113 1 13002ft 306kts
31-Oct-19 10:05 35.908551 -115.567013 2 13004ft 307kts
31-Oct-19 10:06 35.984805 -115.532320 58 12683ft 311kts
31-Oct-19 10:07 36.012565 -115.433958 69 11625ft 289kts
31-Oct-19 10:08 36.029100 -115.341211 93 10603ft 275kts
31-Oct-19 10:09 36.021974 -115.248100 94 9532ft 269kts
31-Oct-19 10:10 36.015499 -115.157191 94 8629ft 258kts
31-Oct-19 10:11 36.009822 -115.072468 93 8004ft 235kts
31-Oct-19 10:12 36.005166 -114.992867 94 8006ft 234kts
31-Oct-19 10:13 36.000277 -114.912261 94 7683ft 238kts
31-Oct-19 10:14 35.997333 -114.831319 70 6931ft 229kts
31-Oct-19 10:15 36.045554 -114.835490 296 5732ft 231kts
31-Oct-19 10:16 36.068731 -114.906484 292 4987ft 207kts
31-Oct-19 10:17 36.073965 -114.969630 269 4632ft 175kts
31-Oct-19 10:18 36.073759 -115.027644 270 3733ft 160kts
31-Oct-19 10:19 36.073711 -115.080287 271 2921ft 150kts
31-Oct-19 10:20 36.073666 -115.131698 271 2198ft 143kts
31-Oct-19 10:21 36.074688 -115.150400 298 2189ft 16kts
31-Oct-19 10:22 36.075225 -115.151214 324 2189ft 0kts
31-Oct-19 10:23 36.078322 -115.153079 336 2189ft 18kts
31-Oct-19 10:24 36.078600 -115.148367 94 2189ft 14kts
31-Oct-19 10:25 36.078266 -115.142433 89 2189ft 18kts
31-Oct-19 10:26 36.082312 -115.141587 0 2189ft 18kts
31-Oct-19 10:27 36.083639 -115.138554 222 2189ft 5kts

Navigation Log

Ident Type
Flight plan parsing failed, navigation log unavailable